sensor_id;sensor_type;location;lat;lon;timestamp;pressure;altitude;pressure_sealevel;temperature;humidity
30730;BME280;17476;48.458;7.928;2023-04-30T00:00:12;100218.34;;;13.90;81.08
30730;BME280;17476;48.458;7.928;2023-04-30T00:02:38;100223.31;;;13.85;81.34
30730;BME280;17476;48.458;7.928;2023-04-30T00:05:04;100218.06;;;13.85;81.19
30730;BME280;17476;48.458;7.928;2023-04-30T00:07:30;100220.66;;;13.71;82.61
30730;BME280;17476;48.458;7.928;2023-04-30T00:09:57;100218.94;;;13.78;82.20
30730;BME280;17476;48.458;7.928;2023-04-30T00:12:23;100217.50;;;13.75;82.51
30730;BME280;17476;48.458;7.928;2023-04-30T00:14:48;100219.88;;;13.85;81.93
30730;BME280;17476;48.458;7.928;2023-04-30T00:17:15;100211.06;;;13.78;82.37
30730;BME280;17476;48.458;7.928;2023-04-30T00:19:41;100214.88;;;13.75;82.56
30730;BME280;17476;48.458;7.928;2023-04-30T00:22:07;100216.53;;;13.68;84.29
30730;BME280;17476;48.458;7.928;2023-04-30T00:24:33;100218.47;;;13.74;83.46
30730;BME280;17476;48.458;7.928;2023-04-30T00:26:59;100217.13;;;13.78;83.17
30730;BME280;17476;48.458;7.928;2023-04-30T00:29:25;100220.88;;;13.84;82.71
30730;BME280;17476;48.458;7.928;2023-04-30T00:31:50;100228.00;;;13.75;82.86
30730;BME280;17476;48.458;7.928;2023-04-30T00:34:16;100216.41;;;13.84;82.54
30730;BME280;17476;48.458;7.928;2023-04-30T00:36:42;100224.38;;;13.76;82.72
30730;BME280;17476;48.458;7.928;2023-04-30T00:39:08;100213.47;;;13.64;84.48
30730;BME280;17476;48.458;7.928;2023-04-30T00:41:34;100206.03;;;13.68;83.23
30730;BME280;17476;48.458;7.928;2023-04-30T00:44:00;100199.13;;;13.67;83.68
30730;BME280;17476;48.458;7.928;2023-04-30T00:46:29;100194.97;;;13.58;84.48
30730;BME280;17476;48.458;7.928;2023-04-30T00:48:55;100193.31;;;13.57;84.37
30730;BME280;17476;48.458;7.928;2023-04-30T00:51:22;100195.25;;;13.63;83.82
30730;BME280;17476;48.458;7.928;2023-04-30T00:53:48;100185.88;;;13.60;84.20
30730;BME280;17476;48.458;7.928;2023-04-30T00:56:14;100182.25;;;13.61;84.03
30730;BME280;17476;48.458;7.928;2023-04-30T00:58:44;100177.75;;;13.55;84.56
30730;BME280;17476;48.458;7.928;2023-04-30T01:01:10;100168.75;;;13.50;84.78
30730;BME280;17476;48.458;7.928;2023-04-30T01:03:36;100166.31;;;13.48;84.89
30730;BME280;17476;48.458;7.928;2023-04-30T01:06:03;100157.69;;;13.54;84.59
30730;BME280;17476;48.458;7.928;2023-04-30T01:08:34;100161.69;;;13.50;84.37
30730;BME280;17476;48.458;7.928;2023-04-30T01:14:20;100153.34;;;13.24;87.03
30730;BME280;17476;48.458;7.928;2023-04-30T01:17:54;100164.59;;;13.32;86.18
30730;BME280;17476;48.458;7.928;2023-04-30T01:19:55;100154.41;;;13.37;85.67
30730;BME280;17476;48.458;7.928;2023-04-30T01:25:51;100153.91;;;13.34;86.55
30730;BME280;17476;48.458;7.928;2023-04-30T01:30:32;100158.13;;;13.43;85.51
30730;BME280;17476;48.458;7.928;2023-04-30T01:32:58;100153.41;;;13.38;85.67
30730;BME280;17476;48.458;7.928;2023-04-30T01:36:04;100153.41;;;13.38;85.90
30730;BME280;17476;48.458;7.928;2023-04-30T01:44:11;100155.22;;;13.38;85.64
30730;BME280;17476;48.458;7.928;2023-04-30T01:46:55;100158.31;;;13.42;85.90
30730;BME280;17476;48.458;7.928;2023-04-30T01:52:32;100158.09;;;13.28;86.58
30730;BME280;17476;48.458;7.928;2023-04-30T01:55:13;100160.97;;;13.33;86.47
30730;BME280;17476;48.458;7.928;2023-04-30T01:57:55;100154.75;;;13.34;86.82
30730;BME280;17476;48.458;7.928;2023-04-30T02:00:23;100159.41;;;13.24;87.12
30730;BME280;17476;48.458;7.928;2023-04-30T02:02:49;100159.91;;;13.20;87.57
30730;BME280;17476;48.458;7.928;2023-04-30T02:05:15;100151.91;;;13.13;87.85
30730;BME280;17476;48.458;7.928;2023-04-30T02:07:43;100144.69;;;13.15;87.76
30730;BME280;17476;48.458;7.928;2023-04-30T02:10:10;100153.09;;;13.10;87.97
30730;BME280;17476;48.458;7.928;2023-04-30T02:12:37;100151.28;;;13.11;88.07
30730;BME280;17476;48.458;7.928;2023-04-30T02:15:04;100151.28;;;13.11;87.71
30730;BME280;17476;48.458;7.928;2023-04-30T02:17:31;100159.28;;;13.18;87.09
30730;BME280;17476;48.458;7.928;2023-04-30T02:19:58;100159.97;;;13.11;88.03
30730;BME280;17476;48.458;7.928;2023-04-30T02:22:23;100150.56;;;13.17;86.95
30730;BME280;17476;48.458;7.928;2023-04-30T02:24:49;100160.97;;;13.10;88.21
30730;BME280;17476;48.458;7.928;2023-04-30T02:27:18;100160.97;;;13.10;87.67
30730;BME280;17476;48.458;7.928;2023-04-30T02:29:44;100150.81;;;13.07;88.05
30730;BME280;17476;48.458;7.928;2023-04-30T02:32:10;100153.59;;;13.06;88.22
30730;BME280;17476;48.458;7.928;2023-04-30T02:34:36;100155.72;;;13.10;87.96
30730;BME280;17476;48.458;7.928;2023-04-30T02:37:01;100152.09;;;13.11;87.18
30730;BME280;17476;48.458;7.928;2023-04-30T02:39:27;100150.81;;;13.07;88.27
30730;BME280;17476;48.458;7.928;2023-04-30T02:41:53;100156.53;;;13.11;87.95
30730;BME280;17476;48.458;7.928;2023-04-30T02:44:19;100150.94;;;13.14;87.54
30730;BME280;17476;48.458;7.928;2023-04-30T02:46:45;100146.84;;;13.11;87.78
30730;BME280;17476;48.458;7.928;2023-04-30T02:49:10;100151.97;;;13.05;87.55
30730;BME280;17476;48.458;7.928;2023-04-30T02:51:36;100150.69;;;13.01;88.25
30730;BME280;17476;48.458;7.928;2023-04-30T02:54:02;100141.13;;;13.08;87.71
30730;BME280;17476;48.458;7.928;2023-04-30T02:56:28;100137.97;;;13.12;87.75
30730;BME280;17476;48.458;7.928;2023-04-30T02:58:54;100144.28;;;13.03;87.94
30730;BME280;17476;48.458;7.928;2023-04-30T03:01:19;100141.00;;;13.01;88.16
30730;BME280;17476;48.458;7.928;2023-04-30T03:03:45;100143.28;;;13.04;87.81
30730;BME280;17476;48.458;7.928;2023-04-30T03:06:11;100134.94;;;13.01;88.26
30730;BME280;17476;48.458;7.928;2023-04-30T03:08:37;100140.00;;;13.02;88.03
30730;BME280;17476;48.458;7.928;2023-04-30T03:11:02;100141.59;;;13.11;86.88
30730;BME280;17476;48.458;7.928;2023-04-30T03:13:28;100132.78;;;13.04;87.37
30730;BME280;17476;48.458;7.928;2023-04-30T03:15:58;100138.50;;;13.08;86.83
30730;BME280;17476;48.458;7.928;2023-04-30T03:18:26;100138.38;;;13.01;87.73
30730;BME280;17476;48.458;7.928;2023-04-30T03:20:52;100134.75;;;13.02;87.07
30730;BME280;17476;48.458;7.928;2023-04-30T03:23:18;100135.91;;;13.00;87.95
30730;BME280;17476;48.458;7.928;2023-04-30T03:25:43;100131.31;;;13.02;86.96
30730;BME280;17476;48.458;7.928;2023-04-30T03:28:09;100130.22;;;12.96;87.64
30730;BME280;17476;48.458;7.928;2023-04-30T03:30:35;100124.91;;;13.04;86.46
30730;BME280;17476;48.458;7.928;2023-04-30T03:33:01;100125.47;;;12.92;87.85
30730;BME280;17476;48.458;7.928;2023-04-30T03:35:27;100129.91;;;12.91;87.53
30730;BME280;17476;48.458;7.928;2023-04-30T03:37:53;100129.28;;;12.89;87.64
30730;BME280;17476;48.458;7.928;2023-04-30T03:40:18;100128.41;;;12.97;87.07
30730;BME280;17476;48.458;7.928;2023-04-30T03:42:44;100127.28;;;12.91;87.12
30730;BME280;17476;48.458;7.928;2023-04-30T03:45:10;100131.09;;;12.89;87.42
30730;BME280;17476;48.458;7.928;2023-04-30T03:47:36;100129.59;;;12.86;87.32
30730;BME280;17476;48.458;7.928;2023-04-30T03:50:02;100124.53;;;12.84;87.52
30730;BME280;17476;48.458;7.928;2023-04-30T03:52:29;100136.50;;;12.87;87.26
30730;BME280;17476;48.458;7.928;2023-04-30T03:54:56;100119.59;;;12.90;86.56
30730;BME280;17476;48.458;7.928;2023-04-30T03:57:22;100124.84;;;12.90;86.81
30730;BME280;17476;48.458;7.928;2023-04-30T03:59:49;100122.72;;;12.85;87.34
30730;BME280;17476;48.458;7.928;2023-04-30T04:02:15;100126.97;;;12.86;86.78
30730;BME280;17476;48.458;7.928;2023-04-30T04:04:41;100121.91;;;12.84;86.94
30730;BME280;17476;48.458;7.928;2023-04-30T04:07:07;100122.09;;;12.83;87.38
30730;BME280;17476;48.458;7.928;2023-04-30T04:09:34;100124.72;;;12.83;87.04
30730;BME280;17476;48.458;7.928;2023-04-30T04:12:00;100135.25;;;12.75;87.60
30730;BME280;17476;48.458;7.928;2023-04-30T04:14:26;100136.25;;;12.74;88.18
30730;BME280;17476;48.458;7.928;2023-04-30T04:16:52;100140.34;;;12.76;88.23
30730;BME280;17476;48.458;7.928;2023-04-30T04:19:17;100136.72;;;12.77;88.33
30730;BME280;17476;48.458;7.928;2023-04-30T04:21:43;100137.72;;;12.76;87.39
30730;BME280;17476;48.458;7.928;2023-04-30T04:24:09;100148.72;;;12.72;88.85
30730;BME280;17476;48.458;7.928;2023-04-30T04:26:36;100144.25;;;12.80;88.18
30730;BME280;17476;48.458;7.928;2023-04-30T04:29:03;100144.38;;;12.87;87.09
30730;BME280;17476;48.458;7.928;2023-04-30T04:31:30;100146.03;;;12.80;87.65
30730;BME280;17476;48.458;7.928;2023-04-30T04:33:59;100153.75;;;12.81;87.90
30730;BME280;17476;48.458;7.928;2023-04-30T04:36:26;100148.78;;;12.87;86.95
30730;BME280;17476;48.458;7.928;2023-04-30T04:38:53;100149.63;;;12.87;87.09
30730;BME280;17476;48.458;7.928;2023-04-30T04:41:22;100151.09;;;12.90;85.80
30730;BME280;17476;48.458;7.928;2023-04-30T04:43:49;100161.28;;;12.84;87.40
30730;BME280;17476;48.458;7.928;2023-04-30T04:46:15;100154.97;;;12.94;86.66
30730;BME280;17476;48.458;7.928;2023-04-30T04:48:41;100156.63;;;12.95;86.38
30730;BME280;17476;48.458;7.928;2023-04-30T04:51:08;100153.13;;;13.02;86.11
30730;BME280;17476;48.458;7.928;2023-04-30T04:53:34;100148.31;;;13.14;85.20
30730;BME280;17476;48.458;7.928;2023-04-30T04:56:01;100153.38;;;13.16;85.23
30730;BME280;17476;48.458;7.928;2023-04-30T04:58:26;100155.34;;;13.13;86.25
30730;BME280;17476;48.458;7.928;2023-04-30T05:00:52;100159.41;;;13.24;85.70
30730;BME280;17476;48.458;7.928;2023-04-30T05:03:19;100157.22;;;13.36;85.62
30730;BME280;17476;48.458;7.928;2023-04-30T05:05:47;100163.84;;;13.47;83.50
30730;BME280;17476;48.458;7.928;2023-04-30T05:08:13;100163.69;;;13.48;84.50
30730;BME280;17476;48.458;7.928;2023-04-30T05:10:39;100157.34;;;13.57;85.20
30730;BME280;17476;48.458;7.928;2023-04-30T05:13:05;100163.44;;;13.73;84.27
30730;BME280;17476;48.458;7.928;2023-04-30T05:15:31;100163.75;;;13.78;83.15
30730;BME280;17476;48.458;7.928;2023-04-30T05:17:56;100160.59;;;13.82;83.49
30730;BME280;17476;48.458;7.928;2023-04-30T05:20:22;100166.03;;;13.96;82.08
30730;BME280;17476;48.458;7.928;2023-04-30T05:22:48;100170.22;;;14.05;80.37
30730;BME280;17476;48.458;7.928;2023-04-30T05:25:14;100169.03;;;14.07;79.77
30730;BME280;17476;48.458;7.928;2023-04-30T05:27:40;100165.78;;;14.05;79.50
30730;BME280;17476;48.458;7.928;2023-04-30T05:30:06;100174.84;;;14.03;79.68
30730;BME280;17476;48.458;7.928;2023-04-30T05:32:34;100173.03;;;14.03;80.53
30730;BME280;17476;48.458;7.928;2023-04-30T05:35:00;100169.41;;;14.04;80.32
30730;BME280;17476;48.458;7.928;2023-04-30T05:37:26;100160.13;;;14.08;80.29
30730;BME280;17476;48.458;7.928;2023-04-30T05:39:52;100163.41;;;14.10;80.30
30730;BME280;17476;48.458;7.928;2023-04-30T05:42:20;100167.31;;;14.14;80.43
30730;BME280;17476;48.458;7.928;2023-04-30T05:44:47;100166.78;;;14.19;81.03
30730;BME280;17476;48.458;7.928;2023-04-30T05:47:14;100164.50;;;14.31;80.53
30730;BME280;17476;48.458;7.928;2023-04-30T05:49:40;100160.88;;;14.32;80.66
30730;BME280;17476;48.458;7.928;2023-04-30T05:52:06;100158.75;;;14.42;79.44
30730;BME280;17476;48.458;7.928;2023-04-30T05:54:32;100160.06;;;14.46;80.02
30730;BME280;17476;48.458;7.928;2023-04-30T05:56:58;100161.53;;;14.63;78.67
30730;BME280;17476;48.458;7.928;2023-04-30T05:59:24;100161.31;;;14.65;79.17
30730;BME280;17476;48.458;7.928;2023-04-30T06:01:51;100157.03;;;14.79;79.40
30730;BME280;17476;48.458;7.928;2023-04-30T06:04:17;100158.50;;;15.02;78.34
30730;BME280;17476;48.458;7.928;2023-04-30T06:06:43;100154.00;;;15.18;76.15
30730;BME280;17476;48.458;7.928;2023-04-30T06:09:09;100153.22;;;15.24;76.46
30730;BME280;17476;48.458;7.928;2023-04-30T06:11:35;100144.00;;;15.35;75.13
30730;BME280;17476;48.458;7.928;2023-04-30T06:14:04;100150.25;;;15.55;75.10
30730;BME280;17476;48.458;7.928;2023-04-30T06:16:30;100147.16;;;15.66;74.37
30730;BME280;17476;48.458;7.928;2023-04-30T06:18:56;100143.53;;;15.74;73.54
30730;BME280;17476;48.458;7.928;2023-04-30T06:21:22;100137.91;;;15.83;74.26
30730;BME280;17476;48.458;7.928;2023-04-30T06:23:51;100131.38;;;16.07;74.04
30730;BME280;17476;48.458;7.928;2023-04-30T06:26:18;100133.88;;;16.16;72.40
30730;BME280;17476;48.458;7.928;2023-04-30T06:28:44;100129.09;;;16.32;73.08
30730;BME280;17476;48.458;7.928;2023-04-30T06:31:11;100132.03;;;16.64;75.36
30730;BME280;17476;48.458;7.928;2023-04-30T06:33:37;100125.63;;;16.93;70.05
30730;BME280;17476;48.458;7.928;2023-04-30T06:36:03;100119.19;;;17.29;70.27
30730;BME280;17476;48.458;7.928;2023-04-30T06:38:30;100124.06;;;17.52;67.84
30730;BME280;17476;48.458;7.928;2023-04-30T06:40:56;100122.44;;;17.57;64.21
30730;BME280;17476;48.458;7.928;2023-04-30T06:43:22;100126.72;;;17.85;64.06
30730;BME280;17476;48.458;7.928;2023-04-30T06:45:48;100117.53;;;17.94;63.09
30730;BME280;17476;48.458;7.928;2023-04-30T06:48:14;100122.00;;;18.00;61.78
30730;BME280;17476;48.458;7.928;2023-04-30T06:50:40;100126.28;;;17.88;57.71
30730;BME280;17476;48.458;7.928;2023-04-30T06:53:13;100131.22;;;17.71;61.16
30730;BME280;17476;48.458;7.928;2023-04-30T06:55:40;100130.16;;;17.65;61.68
30730;BME280;17476;48.458;7.928;2023-04-30T06:58:07;100129.38;;;17.78;60.20
30730;BME280;17476;48.458;7.928;2023-04-30T07:00:34;100125.47;;;17.81;57.91
30730;BME280;17476;48.458;7.928;2023-04-30T07:02:59;100128.13;;;17.87;59.83
30730;BME280;17476;48.458;7.928;2023-04-30T07:05:31;100123.22;;;17.97;61.90
30730;BME280;17476;48.458;7.928;2023-04-30T07:07:59;100125.25;;;18.09;59.29
30730;BME280;17476;48.458;7.928;2023-04-30T07:10:26;100124.00;;;18.18;60.46
30730;BME280;17476;48.458;7.928;2023-04-30T07:12:52;100121.88;;;18.40;59.30
30730;BME280;17476;48.458;7.928;2023-04-30T07:15:18;100129.88;;;18.78;56.69
30730;BME280;17476;48.458;7.928;2023-04-30T07:17:43;100125.28;;;18.98;59.20
30730;BME280;17476;48.458;7.928;2023-04-30T07:20:11;100127.66;;;19.56;56.12
30730;BME280;17476;48.458;7.928;2023-04-30T07:22:39;100123.84;;;19.96;58.14
30730;BME280;17476;48.458;7.928;2023-04-30T07:25:06;100128.22;;;20.27;53.28
30730;BME280;17476;48.458;7.928;2023-04-30T07:27:32;100130.44;;;20.48;56.28
30730;BME280;17476;48.458;7.928;2023-04-30T07:29:57;100130.63;;;20.95;53.14
30730;BME280;17476;48.458;7.928;2023-04-30T07:32:23;100124.94;;;21.33;49.78
30730;BME280;17476;48.458;7.928;2023-04-30T07:34:52;100117.00;;;21.57;50.83
30730;BME280;17476;48.458;7.928;2023-04-30T07:37:18;100127.63;;;21.80;51.06
30730;BME280;17476;48.458;7.928;2023-04-30T07:39:44;100120.09;;;22.00;47.98
30730;BME280;17476;48.458;7.928;2023-04-30T07:42:10;100119.84;;;22.25;48.35
30730;BME280;17476;48.458;7.928;2023-04-30T07:44:36;100122.59;;;22.42;49.06
30730;BME280;17476;48.458;7.928;2023-04-30T07:47:02;100119.03;;;22.65;49.00
30730;BME280;17476;48.458;7.928;2023-04-30T07:49:28;100119.03;;;22.82;46.18
30730;BME280;17476;48.458;7.928;2023-04-30T07:51:53;100114.75;;;23.09;45.98
30730;BME280;17476;48.458;7.928;2023-04-30T07:54:19;100110.31;;;23.15;45.95
30730;BME280;17476;48.458;7.928;2023-04-30T07:56:45;100113.47;;;23.46;44.53
30730;BME280;17476;48.458;7.928;2023-04-30T07:59:13;100112.16;;;23.82;44.24
30730;BME280;17476;48.458;7.928;2023-04-30T08:01:39;100109.81;;;23.85;43.74
30730;BME280;17476;48.458;7.928;2023-04-30T08:04:05;100110.91;;;24.11;45.38
30730;BME280;17476;48.458;7.928;2023-04-30T08:06:32;100111.63;;;24.23;44.75
30730;BME280;17476;48.458;7.928;2023-04-30T08:08:57;100101.81;;;24.07;41.86
30730;BME280;17476;48.458;7.928;2023-04-30T08:11:23;100109.00;;;24.07;38.70
30730;BME280;17476;48.458;7.928;2023-04-30T08:13:49;100109.44;;;24.20;39.03
30730;BME280;17476;48.458;7.928;2023-04-30T08:16:15;100111.13;;;24.27;41.29
30730;BME280;17476;48.458;7.928;2023-04-30T08:18:41;100109.81;;;24.78;41.68
30730;BME280;17476;48.458;7.928;2023-04-30T08:21:15;100109.59;;;25.07;39.17
30730;BME280;17476;48.458;7.928;2023-04-30T08:23:42;100111.44;;;25.06;39.48
30730;BME280;17476;48.458;7.928;2023-04-30T08:26:08;100119.41;;;25.28;38.56
30730;BME280;17476;48.458;7.928;2023-04-30T08:28:34;100110.44;;;24.85;38.16
30730;BME280;17476;48.458;7.928;2023-04-30T08:31:00;100115.41;;;24.28;39.46
30730;BME280;17476;48.458;7.928;2023-04-30T08:33:26;100115.59;;;24.21;38.30
30730;BME280;17476;48.458;7.928;2023-04-30T08:35:52;100115.47;;;24.33;41.25
30730;BME280;17476;48.458;7.928;2023-04-30T08:38:18;100111.56;;;24.18;39.53
30730;BME280;17476;48.458;7.928;2023-04-30T08:43:29;100103.66;;;24.29;39.92
30730;BME280;17476;48.458;7.928;2023-04-30T08:45:56;100111.31;;;24.20;40.57
30730;BME280;17476;48.458;7.928;2023-04-30T08:48:23;100102.34;;;24.09;37.91
30730;BME280;17476;48.458;7.928;2023-04-30T08:50:49;100108.31;;;23.73;41.23
30730;BME280;17476;48.458;7.928;2023-04-30T08:53:16;100106.09;;;23.02;39.15
30730;BME280;17476;48.458;7.928;2023-04-30T08:55:42;100108.44;;;22.99;39.72
30730;BME280;17476;48.458;7.928;2023-04-30T08:58:08;100116.00;;;23.19;41.38
30730;BME280;17476;48.458;7.928;2023-04-30T09:00:37;100103.44;;;23.19;40.95
30730;BME280;17476;48.458;7.928;2023-04-30T09:03:05;100109.84;;;23.35;40.72
30730;BME280;17476;48.458;7.928;2023-04-30T09:05:32;100108.78;;;23.36;41.27
30730;BME280;17476;48.458;7.928;2023-04-30T09:07:57;100106.09;;;23.36;40.33
30730;BME280;17476;48.458;7.928;2023-04-30T09:10:23;100110.88;;;23.34;40.10
30730;BME280;17476;48.458;7.928;2023-04-30T09:13:08;100105.13;;;23.42;40.51
30730;BME280;17476;48.458;7.928;2023-04-30T09:15:36;100101.84;;;23.90;41.11
30730;BME280;17476;48.458;7.928;2023-04-30T09:18:15;100097.00;;;24.09;40.86
30730;BME280;17476;48.458;7.928;2023-04-30T09:23:20;100103.25;;;23.76;40.26
30730;BME280;17476;48.458;7.928;2023-04-30T09:25:46;100101.91;;;23.74;39.96
30730;BME280;17476;48.458;7.928;2023-04-30T09:28:12;100100.84;;;23.75;39.92
30730;BME280;17476;48.458;7.928;2023-04-30T09:30:40;100090.72;;;23.60;38.96
30730;BME280;17476;48.458;7.928;2023-04-30T09:33:06;100086.78;;;23.46;37.80
30730;BME280;17476;48.458;7.928;2023-04-30T09:35:35;100093.88;;;23.74;38.27
30730;BME280;17476;48.458;7.928;2023-04-30T09:38:02;100092.53;;;24.15;37.55
30730;BME280;17476;48.458;7.928;2023-04-30T09:40:41;100083.44;;;24.87;35.77
30730;BME280;17476;48.458;7.928;2023-04-30T09:43:07;100096.00;;;25.13;34.37
30730;BME280;17476;48.458;7.928;2023-04-30T09:45:45;100087.31;;;25.01;37.15
30730;BME280;17476;48.458;7.928;2023-04-30T09:48:15;100080.19;;;24.58;35.63
30730;BME280;17476;48.458;7.928;2023-04-30T09:50:41;100079.59;;;24.50;36.25
30730;BME280;17476;48.458;7.928;2023-04-30T09:53:09;100084.97;;;24.07;37.57
30730;BME280;17476;48.458;7.928;2023-04-30T09:55:36;100079.75;;;23.95;38.41
30730;BME280;17476;48.458;7.928;2023-04-30T09:58:06;100079.56;;;24.02;38.29
30730;BME280;17476;48.458;7.928;2023-04-30T10:00:33;100081.59;;;23.73;37.05
30730;BME280;17476;48.458;7.928;2023-04-30T10:03:11;100083.88;;;23.30;37.18
30730;BME280;17476;48.458;7.928;2023-04-30T10:05:41;100088.38;;;23.63;38.68
30730;BME280;17476;48.458;7.928;2023-04-30T10:08:49;100071.66;;;23.90;37.78
30730;BME280;17476;48.458;7.928;2023-04-30T10:11:20;100073.03;;;23.92;37.05
30730;BME280;17476;48.458;7.928;2023-04-30T10:14:10;100065.25;;;23.35;37.00
30730;BME280;17476;48.458;7.928;2023-04-30T10:16:54;100070.28;;;23.32;38.55
30730;BME280;17476;48.458;7.928;2023-04-30T10:19:24;100065.16;;;23.64;38.64
30730;BME280;17476;48.458;7.928;2023-04-30T10:21:51;100065.50;;;23.89;37.96
30730;BME280;17476;48.458;7.928;2023-04-30T10:24:19;100056.72;;;24.38;38.03
30730;BME280;17476;48.458;7.928;2023-04-30T10:26:46;100052.91;;;24.83;37.48
30730;BME280;17476;48.458;7.928;2023-04-30T10:29:14;100061.16;;;25.08;34.56
30730;BME280;17476;48.458;7.928;2023-04-30T10:31:47;100050.22;;;24.83;36.39
30730;BME280;17476;48.458;7.928;2023-04-30T10:36:56;100043.06;;;25.68;34.96
30730;BME280;17476;48.458;7.928;2023-04-30T10:39:26;100042.78;;;25.64;34.49
30730;BME280;17476;48.458;7.928;2023-04-30T10:42:02;100042.16;;;25.52;35.48
30730;BME280;17476;48.458;7.928;2023-04-30T10:44:32;100044.56;;;25.48;32.80
30730;BME280;17476;48.458;7.928;2023-04-30T10:47:00;100038.44;;;26.10;33.58
30730;BME280;17476;48.458;7.928;2023-04-30T10:49:27;100043.09;;;26.46;34.28
30730;BME280;17476;48.458;7.928;2023-04-30T10:51:53;100040.19;;;27.03;33.07
30730;BME280;17476;48.458;7.928;2023-04-30T10:54:30;100040.19;;;27.03;32.81
30730;BME280;17476;48.458;7.928;2023-04-30T10:57:13;100046.88;;;26.50;33.93
30730;BME280;17476;48.458;7.928;2023-04-30T11:02:44;100049.50;;;25.72;34.59
30730;BME280;17476;48.458;7.928;2023-04-30T11:05:15;100036.41;;;26.43;35.06
30730;BME280;17476;48.458;7.928;2023-04-30T11:07:55;100033.22;;;27.12;34.69
30730;BME280;17476;48.458;7.928;2023-04-30T11:10:23;100035.81;;;27.68;34.46
30730;BME280;17476;48.458;7.928;2023-04-30T11:12:54;100038.84;;;28.11;31.57
30730;BME280;17476;48.458;7.928;2023-04-30T11:15:34;100032.00;;;28.39;29.46
30730;BME280;17476;48.458;7.928;2023-04-30T11:18:05;100033.66;;;28.69;30.83
30730;BME280;17476;48.458;7.928;2023-04-30T11:20:31;100028.19;;;28.79;31.04
30730;BME280;17476;48.458;7.928;2023-04-30T11:23:14;100021.44;;;29.40;32.77
30730;BME280;17476;48.458;7.928;2023-04-30T11:25:46;100018.75;;;29.64;29.45
30730;BME280;17476;48.458;7.928;2023-04-30T11:28:26;100021.50;;;29.35;30.28
30730;BME280;17476;48.458;7.928;2023-04-30T11:30:59;100019.63;;;29.06;29.65
30730;BME280;17476;48.458;7.928;2023-04-30T11:33:27;100019.63;;;28.72;31.09
30730;BME280;17476;48.458;7.928;2023-04-30T11:35:55;100013.19;;;28.34;30.82
30730;BME280;17476;48.458;7.928;2023-04-30T11:38:29;100023.94;;;27.85;32.11
30730;BME280;17476;48.458;7.928;2023-04-30T11:40:56;100011.13;;;27.51;31.59
30730;BME280;17476;48.458;7.928;2023-04-30T11:43:28;100015.19;;;27.38;31.97
30730;BME280;17476;48.458;7.928;2023-04-30T11:48:38;100016.44;;;27.66;31.76
30730;BME280;17476;48.458;7.928;2023-04-30T11:51:25;100017.91;;;27.13;33.05
30730;BME280;17476;48.458;7.928;2023-04-30T11:53:52;100023.28;;;26.87;33.01
30730;BME280;17476;48.458;7.928;2023-04-30T11:56:19;100027.19;;;26.19;33.01
30730;BME280;17476;48.458;7.928;2023-04-30T11:58:47;100018.63;;;26.27;33.61
30730;BME280;17476;48.458;7.928;2023-04-30T12:01:14;100013.34;;;26.67;33.50
30730;BME280;17476;48.458;7.928;2023-04-30T12:03:50;100003.13;;;27.15;31.78
30730;BME280;17476;48.458;7.928;2023-04-30T12:06:25;100009.81;;;27.23;32.85
30730;BME280;17476;48.458;7.928;2023-04-30T12:08:56;100003.81;;;27.67;31.53
30730;BME280;17476;48.458;7.928;2023-04-30T12:11:28;100009.19;;;27.72;32.02
30730;BME280;17476;48.458;7.928;2023-04-30T12:14:00;100003.09;;;27.36;31.02
30730;BME280;17476;48.458;7.928;2023-04-30T12:16:41;100011.47;;;27.04;32.85
30730;BME280;17476;48.458;7.928;2023-04-30T12:19:11;100001.00;;;26.87;30.85
30730;BME280;17476;48.458;7.928;2023-04-30T12:21:38;100006.91;;;26.63;33.23
30730;BME280;17476;48.458;7.928;2023-04-30T12:24:05;100012.81;;;26.65;33.30
30730;BME280;17476;48.458;7.928;2023-04-30T12:26:39;100017.09;;;26.61;33.57
30730;BME280;17476;48.458;7.928;2023-04-30T12:29:17;100010.13;;;26.86;33.92
30730;BME280;17476;48.458;7.928;2023-04-30T12:31:44;100014.41;;;26.66;34.35
30730;BME280;17476;48.458;7.928;2023-04-30T12:34:13;100010.66;;;26.57;33.44
30730;BME280;17476;48.458;7.928;2023-04-30T12:36:40;100012.56;;;26.57;33.64
30730;BME280;17476;48.458;7.928;2023-04-30T12:39:14;100010.00;;;26.14;33.16
30730;BME280;17476;48.458;7.928;2023-04-30T12:41:45;100016.16;;;26.05;34.76
30730;BME280;17476;48.458;7.928;2023-04-30T12:44:22;100009.97;;;25.42;33.59
30730;BME280;17476;48.458;7.928;2023-04-30T12:46:51;99999.53;;;25.45;35.50
30730;BME280;17476;48.458;7.928;2023-04-30T12:49:29;100003.91;;;25.09;33.79
30730;BME280;17476;48.458;7.928;2023-04-30T12:52:10;100013.91;;;24.60;34.25
30730;BME280;17476;48.458;7.928;2023-04-30T12:54:38;100006.03;;;24.21;35.50
30730;BME280;17476;48.458;7.928;2023-04-30T12:57:11;100001.22;;;24.23;36.19
30730;BME280;17476;48.458;7.928;2023-04-30T12:59:57;99994.16;;;24.34;36.94
30730;BME280;17476;48.458;7.928;2023-04-30T13:02:28;99994.56;;;24.47;36.83
30730;BME280;17476;48.458;7.928;2023-04-30T13:04:54;99995.47;;;24.63;37.39
30730;BME280;17476;48.458;7.928;2023-04-30T13:07:19;99984.72;;;24.90;35.21
30730;BME280;17476;48.458;7.928;2023-04-30T13:09:47;99990.97;;;25.43;35.34
30730;BME280;17476;48.458;7.928;2023-04-30T13:12:12;99983.13;;;25.79;35.24
30730;BME280;17476;48.458;7.928;2023-04-30T13:14:39;99989.09;;;26.06;35.15
30730;BME280;17476;48.458;7.928;2023-04-30T13:17:05;99983.28;;;26.40;33.44
30730;BME280;17476;48.458;7.928;2023-04-30T13:19:32;99990.00;;;26.48;33.48
30730;BME280;17476;48.458;7.928;2023-04-30T13:21:59;99989.94;;;26.32;33.99
30730;BME280;17476;48.458;7.928;2023-04-30T13:24:26;99985.78;;;25.79;32.73
30730;BME280;17476;48.458;7.928;2023-04-30T13:26:52;99989.53;;;25.73;33.02